createdAt,value
2022-12-17T00:00:47.045Z,17.17
2022-12-17T00:02:37.851Z,11.45
2022-12-17T00:04:28.675Z,9.23
2022-12-17T00:06:19.221Z,8.45
2022-12-17T00:08:15.577Z,7.45
2022-12-17T00:10:06.187Z,8.77
2022-12-17T00:12:11.113Z,33.08
2022-12-17T00:14:03.341Z,45.15
2022-12-17T00:15:54.293Z,40.47
2022-12-17T00:17:47.309Z,63.20
2022-12-17T00:19:49.434Z,38.35
2022-12-17T00:21:40.093Z,48.33
2022-12-17T00:23:30.907Z,48.85
2022-12-17T00:25:21.859Z,18.90
2022-12-17T00:27:12.506Z,11.95
2022-12-17T00:29:04.354Z,10.65
2022-12-17T00:30:51.321Z,9.35
2022-12-17T00:32:42.742Z,7.05
2022-12-17T00:34:33.483Z,6.30
2022-12-17T00:36:24.350Z,6.43
2022-12-17T00:38:14.829Z,5.78
2022-12-17T00:40:05.387Z,6.40
2022-12-17T00:41:55.875Z,6.57
2022-12-17T00:43:46.978Z,6.80
2022-12-17T00:45:40.174Z,8.13
2022-12-17T00:47:30.813Z,8.48
2022-12-17T00:49:21.460Z,19.23
2022-12-17T00:51:14.037Z,19.95
2022-12-17T00:53:09.913Z,19.48
2022-12-17T00:55:00.815Z,24.10
2022-12-17T00:56:51.639Z,26.10
2022-12-17T00:58:42.424Z,23.67
2022-12-17T01:00:34.786Z,31.13
2022-12-17T01:02:27.157Z,34.15
2022-12-17T01:04:17.773Z,33.33
2022-12-17T01:06:08.565Z,32.53
2022-12-17T01:07:58.844Z,31.35
2022-12-17T01:09:50.563Z,32.05
2022-12-17T01:11:41.233Z,32.53
2022-12-17T01:13:32.017Z,28.52
2022-12-17T01:15:23.540Z,28.27
2022-12-17T01:17:14.040Z,30.17
2022-12-17T01:19:05.750Z,25.33
2022-12-17T01:20:56.049Z,25.48
2022-12-17T01:22:47.191Z,23.70
2022-12-17T01:24:40.072Z,21.58
2022-12-17T01:26:33.038Z,21.45
2022-12-17T01:28:20.044Z,23.75
2022-12-17T01:30:11.970Z,21.10
2022-12-17T01:32:02.943Z,22.27
2022-12-17T01:33:53.987Z,23.13
2022-12-17T01:35:46.061Z,24.60
2022-12-17T01:37:36.757Z,24.25
2022-12-17T01:39:27.284Z,21.58
2022-12-17T01:41:18.142Z,24.08
2022-12-17T01:43:08.715Z,23.88
2022-12-17T01:45:12.078Z,23.88
2022-12-17T01:47:08.579Z,23.02
2022-12-17T01:49:02.192Z,22.55
2022-12-17T01:50:58.497Z,22.70
2022-12-17T01:52:48.921Z,22.75
2022-12-17T01:54:41.707Z,33.22
2022-12-17T01:56:32.751Z,27.25
2022-12-17T01:58:23.236Z,21.25
2022-12-17T02:00:15.532Z,20.52
2022-12-17T02:02:06.204Z,20.00
2022-12-17T02:03:57.023Z,19.42
2022-12-17T02:05:53.190Z,22.25
2022-12-17T02:07:59.518Z,23.42
2022-12-17T02:09:58.678Z,22.08
2022-12-17T02:11:57.583Z,19.50
2022-12-17T02:13:54.995Z,19.55
2022-12-17T02:15:52.628Z,18.15
2022-12-17T02:17:51.866Z,15.88
2022-12-17T02:19:58.506Z,16.70
2022-12-17T02:21:51.947Z,16.08
2022-12-17T02:23:56.524Z,14.65
2022-12-17T02:25:55.199Z,14.43
2022-12-17T02:28:01.010Z,20.33
2022-12-17T02:29:58.157Z,22.95
2022-12-17T02:31:49.278Z,20.50
2022-12-17T02:33:40.819Z,16.95
2022-12-17T02:35:34.765Z,17.48
2022-12-17T02:37:25.090Z,17.33
2022-12-17T02:39:15.941Z,16.65
2022-12-17T02:41:08.267Z,15.77
2022-12-17T02:43:05.870Z,16.60
2022-12-17T02:45:01.418Z,14.82
2022-12-17T02:46:52.153Z,13.35
2022-12-17T02:48:45.899Z,12.50
2022-12-17T02:50:36.810Z,11.93
2022-12-17T02:52:34.595Z,13.75
2022-12-17T02:54:27.197Z,12.30
2022-12-17T02:56:17.872Z,12.30
2022-12-17T02:58:09.878Z,14.00
2022-12-17T03:00:11.609Z,12.50
2022-12-17T03:02:02.352Z,13.57
2022-12-17T03:03:55.107Z,13.05
2022-12-17T03:05:46.210Z,12.80
2022-12-17T03:07:37.068Z,12.35
2022-12-17T03:09:27.670Z,11.43
2022-12-17T03:11:18.313Z,10.65
2022-12-17T03:13:10.207Z,10.93
2022-12-17T03:15:01.122Z,11.00
2022-12-17T03:16:51.742Z,9.63
2022-12-17T03:18:42.342Z,8.02
2022-12-17T03:20:33.111Z,7.65
2022-12-17T03:22:23.824Z,7.88
2022-12-17T03:24:14.535Z,7.75
2022-12-17T03:26:07.583Z,7.68
2022-12-17T03:27:58.270Z,7.88
2022-12-17T03:29:50.375Z,7.35
2022-12-17T03:31:41.274Z,7.45
2022-12-17T03:33:32.125Z,8.32
2022-12-17T03:35:28.906Z,8.07
2022-12-17T03:37:19.687Z,7.45
2022-12-17T03:39:10.329Z,8.18
2022-12-17T03:41:00.704Z,6.95
2022-12-17T03:42:51.003Z,7.55
2022-12-17T03:44:49.847Z,8.48
2022-12-17T03:46:41.955Z,7.53
2022-12-17T03:48:33.582Z,7.82
2022-12-17T03:50:24.949Z,8.52
2022-12-17T03:52:11.977Z,8.98
2022-12-17T03:54:02.915Z,8.82
2022-12-17T03:55:53.666Z,12.65
2022-12-17T03:57:44.264Z,9.57
2022-12-17T03:59:43.172Z,9.73
2022-12-17T04:01:33.883Z,9.48
2022-12-17T04:03:34.809Z,8.85
2022-12-17T04:05:26.159Z,9.98
2022-12-17T04:07:16.867Z,9.43
2022-12-17T04:09:07.739Z,8.55
2022-12-17T04:10:58.213Z,9.23
2022-12-17T04:12:48.593Z,7.95
2022-12-17T04:14:39.199Z,7.82
2022-12-17T04:16:29.400Z,8.35
2022-12-17T04:18:19.789Z,8.20
2022-12-17T04:20:11.743Z,8.38
2022-12-17T04:22:02.333Z,11.02
2022-12-17T04:23:52.737Z,10.02
2022-12-17T04:25:43.388Z,10.88
2022-12-17T04:27:34.323Z,13.55
2022-12-17T04:29:25.296Z,13.13
2022-12-17T04:31:15.695Z,12.13
2022-12-17T04:33:07.043Z,33.75
2022-12-17T04:35:08.899Z,16.75
2022-12-17T04:37:00.705Z,18.15
2022-12-17T04:38:51.353Z,13.65
2022-12-17T04:40:41.812Z,14.43
2022-12-17T04:42:32.108Z,80.50
2022-12-17T04:44:22.691Z,24.30
2022-12-17T04:46:13.653Z,18.42
2022-12-17T04:48:04.333Z,18.73
2022-12-17T04:49:54.947Z,19.67
2022-12-17T04:51:45.908Z,20.90
2022-12-17T04:53:38.212Z,21.00
2022-12-17T04:55:29.246Z,19.13
2022-12-17T04:57:20.275Z,19.38
2022-12-17T04:59:10.463Z,20.15
2022-12-17T05:01:00.837Z,19.73
2022-12-17T05:02:51.620Z,18.02
2022-12-17T05:04:42.252Z,19.20
2022-12-17T05:06:35.266Z,18.30
2022-12-17T05:08:25.739Z,18.77
2022-12-17T05:10:17.827Z,18.23
2022-12-17T05:12:08.692Z,17.23
2022-12-17T05:13:59.403Z,17.52
2022-12-17T05:15:53.331Z,17.30
2022-12-17T05:17:44.115Z,16.48
2022-12-17T05:19:34.719Z,17.63
2022-12-17T05:21:29.207Z,16.35
2022-12-17T05:23:31.012Z,15.20
2022-12-17T05:25:23.349Z,16.30
2022-12-17T05:27:13.928Z,38.15
2022-12-17T05:29:04.671Z,44.92
2022-12-17T05:30:55.482Z,20.40
2022-12-17T05:32:46.114Z,23.45
2022-12-17T05:34:36.681Z,15.55
2022-12-17T05:36:28.132Z,14.30
2022-12-17T05:38:25.268Z,15.85
2022-12-17T05:40:15.862Z,17.30
2022-12-17T05:42:07.613Z,21.40
2022-12-17T05:43:58.161Z,24.63
2022-12-17T05:45:51.181Z,38.35
2022-12-17T05:47:53.317Z,37.60
2022-12-17T05:49:44.084Z,28.92
2022-12-17T05:51:38.635Z,28.30
2022-12-17T05:53:29.958Z,26.08
2022-12-17T05:55:20.463Z,35.20
2022-12-17T05:57:12.837Z,31.52
2022-12-17T05:59:03.394Z,30.80
2022-12-17T06:00:53.537Z,19.10
2022-12-17T06:02:44.213Z,24.95
2022-12-17T06:04:35.026Z,19.35
2022-12-17T06:06:26.369Z,22.13
2022-12-17T06:08:22.559Z,24.58
2022-12-17T06:10:13.163Z,23.27
2022-12-17T06:12:03.558Z,28.48
2022-12-17T06:13:56.967Z,29.75
2022-12-17T06:15:47.695Z,29.50
2022-12-17T06:17:38.354Z,28.20
2022-12-17T06:19:40.740Z,23.42
2022-12-17T06:21:31.421Z,28.48
2022-12-17T06:23:23.852Z,37.28
2022-12-17T06:25:14.857Z,30.60
2022-12-17T06:27:05.812Z,25.65
2022-12-17T06:29:01.664Z,24.73
2022-12-17T06:30:52.561Z,23.38
2022-12-17T06:32:43.283Z,59.85
2022-12-17T06:34:33.557Z,55.40
2022-12-17T06:36:25.254Z,56.95
2022-12-17T06:38:19.385Z,61.40
2022-12-17T06:40:10.237Z,64.22
2022-12-17T06:42:04.896Z,54.60
2022-12-17T06:43:56.354Z,54.70
2022-12-17T06:45:50.116Z,54.88
2022-12-17T06:47:40.762Z,50.80
2022-12-17T06:49:31.887Z,52.08
2022-12-17T06:51:22.684Z,44.55
2022-12-17T06:53:20.687Z,40.70
2022-12-17T06:55:12.330Z,37.05
2022-12-17T06:57:03.411Z,48.95
2022-12-17T06:58:54.979Z,121.22
2022-12-17T07:00:45.520Z,88.18
2022-12-17T07:02:37.730Z,104.15
2022-12-17T07:04:28.634Z,76.65
2022-12-17T07:06:20.807Z,88.22
2022-12-17T07:08:16.060Z,86.53
2022-12-17T07:10:12.146Z,77.38
2022-12-17T07:12:05.519Z,74.40
2022-12-17T07:13:57.243Z,77.22
2022-12-17T07:15:48.204Z,69.07
2022-12-17T07:17:54.542Z,61.53
2022-12-17T07:19:45.112Z,47.13
2022-12-17T07:21:36.406Z,44.75
2022-12-17T07:23:29.867Z,34.88
2022-12-17T07:25:20.484Z,35.38
2022-12-17T07:27:11.150Z,35.83
2022-12-17T07:29:02.021Z,34.10
2022-12-17T07:30:55.758Z,32.28
2022-12-17T07:32:47.751Z,26.30
2022-12-17T07:34:38.609Z,27.65
2022-12-17T07:36:29.211Z,30.35
2022-12-17T07:38:21.163Z,40.05
2022-12-17T07:40:11.948Z,41.08
2022-12-17T07:42:02.879Z,43.50
2022-12-17T07:43:59.210Z,47.65
2022-12-17T07:45:50.276Z,29.05
2022-12-17T07:47:40.753Z,34.83
2022-12-17T19:03:47.312Z,7.00
2022-12-17T19:05:20.547Z,7.00
2022-12-17T19:06:54.492Z,8.23
2022-12-17T19:08:27.681Z,7.82
2022-12-17T19:10:00.858Z,6.50
2022-12-17T19:11:39.116Z,7.55
2022-12-17T19:13:15.209Z,7.55
2022-12-17T19:14:48.322Z,7.13
2022-12-17T19:16:24.235Z,7.82
2022-12-17T19:17:57.571Z,10.80
2022-12-17T19:19:32.123Z,11.52
2022-12-17T19:21:06.418Z,11.88
2022-12-17T19:22:39.574Z,9.60
2022-12-17T19:24:15.323Z,9.75
2022-12-17T19:25:48.510Z,8.13
2022-12-17T19:27:21.983Z,12.82
2022-12-17T19:28:56.783Z,9.48
2022-12-17T19:30:29.961Z,9.50
2022-12-17T19:32:03.254Z,10.52
2022-12-17T19:33:36.772Z,11.68
2022-12-17T19:35:11.492Z,12.63
2022-12-17T19:36:45.266Z,13.55
2022-12-17T19:38:18.434Z,10.57
2022-12-17T19:39:51.552Z,7.85
2022-12-17T19:41:26.429Z,10.90
2022-12-17T19:42:59.778Z,9.40
2022-12-17T19:44:34.231Z,9.15
2022-12-17T19:46:09.802Z,7.80
2022-12-17T19:47:43.109Z,10.48
2022-12-17T19:49:17.710Z,10.13
2022-12-17T19:50:58.348Z,11.77
2022-12-17T19:52:31.637Z,10.55
2022-12-17T19:54:08.745Z,11.02
2022-12-17T19:55:42.244Z,10.50
2022-12-17T19:57:15.435Z,10.10
2022-12-17T19:58:52.588Z,7.32
2022-12-17T20:00:25.870Z,10.95
2022-12-17T20:02:03.614Z,9.13
2022-12-17T20:03:37.954Z,9.13
2022-12-17T20:05:11.289Z,13.23
2022-12-17T20:06:46.446Z,18.55
2022-12-17T20:08:22.589Z,18.23
2022-12-17T20:09:55.955Z,15.45
2022-12-17T20:11:35.891Z,21.52
2022-12-17T20:13:09.475Z,19.27
2022-12-17T20:14:42.747Z,19.45
2022-12-17T20:16:16.029Z,16.95
2022-12-17T20:17:49.250Z,17.33
2022-12-17T20:19:24.523Z,16.52
2022-12-17T20:21:03.361Z,16.63
2022-12-17T20:22:37.986Z,19.63
2022-12-17T20:24:12.017Z,17.90
2022-12-17T20:25:45.528Z,17.70
2022-12-17T20:27:18.710Z,19.38
2022-12-17T20:28:51.818Z,19.25
2022-12-17T20:30:24.994Z,21.13
2022-12-17T20:31:58.297Z,19.08
2022-12-17T20:33:32.217Z,20.27
2022-12-17T20:35:06.218Z,18.00
2022-12-17T20:36:40.558Z,15.45
2022-12-17T20:38:15.320Z,15.65
2022-12-17T20:39:48.460Z,29.73
2022-12-17T20:41:24.523Z,24.30
2022-12-17T20:42:57.842Z,25.67
2022-12-17T20:44:31.061Z,19.77
2022-12-17T20:46:04.442Z,5.55
2022-12-17T20:47:37.633Z,11.68
2022-12-17T20:49:12.572Z,5.00
2022-12-17T20:50:46.135Z,13.27
2022-12-17T20:52:19.360Z,15.50
2022-12-17T20:53:54.871Z,15.38
2022-12-17T20:55:31.252Z,9.35
2022-12-17T20:57:04.709Z,8.32
2022-12-17T20:58:39.359Z,10.40
2022-12-17T21:00:13.549Z,8.00
2022-12-17T21:01:51.659Z,6.57
2022-12-17T21:03:29.200Z,5.50
2022-12-17T21:05:02.489Z,6.60
2022-12-17T21:06:38.958Z,6.60
2022-12-17T21:08:12.232Z,5.88
2022-12-17T21:09:46.906Z,5.30
2022-12-17T21:11:22.255Z,7.85
2022-12-17T21:13:12.847Z,6.82
2022-12-17T21:14:46.089Z,5.25
2022-12-17T21:16:21.568Z,6.13
2022-12-17T21:17:54.986Z,6.38
2022-12-17T21:19:28.362Z,4.80
2022-12-17T21:21:03.810Z,3.20
2022-12-17T21:22:36.975Z,4.53
2022-12-17T21:24:11.155Z,2.67
2022-12-17T21:25:45.786Z,2.75
2022-12-17T21:27:18.954Z,3.10
2022-12-17T21:28:54.961Z,3.13
2022-12-17T21:30:28.281Z,2.97
2022-12-17T21:32:03.139Z,3.88
2022-12-17T21:33:36.584Z,4.72
2022-12-17T21:35:10.427Z,4.82
2022-12-17T21:36:44.135Z,2.83
2022-12-17T21:38:17.623Z,3.45
2022-12-17T21:39:55.149Z,2.90
2022-12-17T21:41:34.914Z,2.42
2022-12-17T21:43:07.276Z,2.55
2022-12-17T21:44:40.531Z,2.90
2022-12-17T21:46:15.085Z,2.20
2022-12-17T21:47:48.259Z,1.80
2022-12-17T21:49:21.476Z,2.33
2022-12-17T21:50:54.904Z,2.65
2022-12-17T21:52:28.326Z,2.55
2022-12-17T21:54:08.524Z,3.25
2022-12-17T21:55:43.136Z,2.03
2022-12-17T21:57:17.925Z,2.85
2022-12-17T21:58:56.706Z,2.15
2022-12-17T22:00:29.988Z,1.65
2022-12-17T22:02:03.351Z,2.20
2022-12-17T22:03:35.677Z,1.50
2022-12-17T22:05:13.693Z,1.75
2022-12-17T22:06:53.977Z,2.00
2022-12-17T22:08:29.432Z,2.25
2022-12-17T22:10:27.978Z,1.30
2022-12-17T22:12:17.252Z,1.77
2022-12-17T22:14:16.997Z,1.40
2022-12-17T22:15:53.780Z,0.80
2022-12-17T22:17:26.015Z,2.05
2022-12-17T22:19:00.274Z,2.30
2022-12-17T22:20:33.509Z,2.42
2022-12-17T22:22:06.752Z,2.17
2022-12-17T22:23:40.002Z,3.35
2022-12-17T22:25:14.187Z,2.67
2022-12-17T22:26:48.022Z,1.63
2022-12-17T22:28:21.234Z,2.53
2022-12-17T22:30:14.346Z,3.50
2022-12-17T22:32:05.110Z,4.65
2022-12-17T22:33:48.877Z,2.20
2022-12-17T22:36:22.056Z,4.15
2022-12-17T22:41:36.989Z,2.63
2022-12-17T22:42:27.377Z,2.55
2022-12-17T22:44:35.117Z,2.78
2022-12-17T22:44:42.338Z,2.22
2022-12-17T22:45:26.216Z,2.85
2022-12-17T22:46:59.443Z,3.55
2022-12-17T22:48:34.207Z,2.70
2022-12-17T22:50:08.117Z,2.70
2022-12-17T22:51:42.855Z,3.55
2022-12-17T22:53:16.825Z,2.67
2022-12-17T22:54:50.439Z,3.13
2022-12-17T22:56:43.668Z,2.50
2022-12-17T22:58:17.559Z,2.42
2022-12-17T22:59:51.630Z,2.92
2022-12-17T23:01:26.268Z,3.75
2022-12-17T23:02:59.792Z,5.15
2022-12-17T23:04:33.221Z,2.90
2022-12-17T23:06:10.698Z,2.33
2022-12-17T23:07:43.919Z,3.95
2022-12-17T23:09:19.626Z,3.42
2022-12-17T23:10:52.908Z,4.13
2022-12-17T23:12:43.899Z,2.15
2022-12-17T23:14:17.577Z,3.65
2022-12-17T23:15:52.754Z,4.88
2022-12-17T23:17:27.404Z,2.42
2022-12-17T23:19:02.086Z,1.67
2022-12-17T23:20:36.141Z,2.38
2022-12-17T23:22:09.383Z,3.58
2022-12-17T23:23:43.138Z,5.18
2022-12-17T23:25:16.579Z,3.67
2022-12-17T23:26:49.735Z,4.15
2022-12-17T23:28:22.899Z,2.78
2022-12-17T23:29:55.049Z,3.28
2022-12-17T23:31:29.708Z,2.50
2022-12-17T23:33:04.425Z,3.13
2022-12-17T23:34:37.652Z,3.03
2022-12-17T23:36:13.053Z,2.55
2022-12-17T23:37:46.213Z,2.85
2022-12-17T23:39:19.516Z,2.58
2022-12-17T23:40:52.686Z,3.53
2022-12-17T23:42:25.881Z,3.28
2022-12-17T23:43:59.574Z,3.13
2022-12-17T23:45:32.751Z,2.95
2022-12-17T23:47:05.064Z,2.90
2022-12-17T23:48:45.293Z,3.03
2022-12-17T23:50:19.016Z,3.40
2022-12-17T23:51:51.248Z,2.65
2022-12-17T23:53:24.487Z,2.78
2022-12-17T23:54:57.644Z,3.40
2022-12-17T23:56:31.016Z,3.20
2022-12-17T23:58:04.278Z,3.40
2022-12-17T23:59:37.434Z,3.00
